Time;durP1;ratioP1;P1;durP2;ratioP2;P2;SDS_P1;SDS_P2;PMS_P1;PMS_P2;Temp;Humidity;BMP_temperature;BMP_pressure;BME280_temperature;BME280_humidity;BME280_pressure;Samples;Min_cycle;Max_cycle;Signal;HPM_P1;HPM_P2
2024/02/22 00:01:24;;;;;;;4.85;1.30;;;12.60;93.00;;;;;;5085782;28;20074;-71
2024/02/22 00:03:49;;;;;;;1.73;1.20;;;12.60;93.20;;;;;;5098112;28;20042;-69
2024/02/22 00:06:15;;;;;;;1.58;1.00;;;12.60;93.40;;;;;;5112928;28;20147;-70
2024/02/22 00:08:41;;;;;;;4.07;1.30;;;12.60;93.50;;;;;;5100359;27;20108;-71
2024/02/22 00:11:07;;;;;;;2.55;1.25;;;12.60;93.60;;;;;;5093013;28;20012;-70
2024/02/22 00:13:33;;;;;;;5.30;1.92;;;12.60;93.70;;;;;;5103163;28;20035;-71
2024/02/22 00:16:03;;;;;;;2.78;1.52;;;12.60;94.00;;;;;;5111116;28;20031;-70
2024/02/22 00:18:29;;;;;;;3.58;1.90;;;12.60;94.00;;;;;;5111827;28;20032;-70
2024/02/22 00:20:55;;;;;;;3.72;1.27;;;12.50;94.20;;;;;;5109461;28;20540;-69
2024/02/22 00:23:20;;;;;;;3.70;1.30;;;12.50;94.40;;;;;;5100487;28;20142;-70
2024/02/22 00:25:46;;;;;;;5.80;1.40;;;12.40;94.60;;;;;;5092155;28;20035;-69
2024/02/22 00:28:12;;;;;;;1.80;1.17;;;12.40;94.60;;;;;;5095242;28;20100;-69
2024/02/22 00:30:37;;;;;;;1.73;1.20;;;12.30;94.80;;;;;;5105085;28;20050;-69
2024/02/22 00:33:04;;;;;;;6.03;1.30;;;12.20;94.80;;;;;;5102948;28;20059;-70
2024/02/22 00:35:29;;;;;;;4.22;1.23;;;12.20;95.00;;;;;;5091866;28;20485;-70
2024/02/22 00:37:55;;;;;;;1.80;1.10;;;12.20;95.10;;;;;;5103717;28;20076;-72
2024/02/22 00:40:21;;;;;;;3.22;1.13;;;12.20;95.30;;;;;;5100340;28;20104;-70
2024/02/22 00:42:47;;;;;;;1.48;1.00;;;12.20;95.40;;;;;;5110781;28;20067;-69
2024/02/22 00:45:15;;;;;;;2.97;1.23;;;12.20;95.70;;;;;;5110626;28;20034;-69
2024/02/22 00:47:41;;;;;;;2.92;1.35;;;12.10;95.80;;;;;;5111753;28;20030;-70
2024/02/22 00:50:08;;;;;;;3.80;1.33;;;12.10;96.00;;;;;;5105932;28;20016;-69
2024/02/22 00:52:34;;;;;;;2.03;1.10;;;12.00;96.20;;;;;;5102628;28;20019;-70
2024/02/22 00:54:59;;;;;;;2.03;1.20;;;12.00;96.30;;;;;;5104145;28;20035;-69
2024/02/22 00:57:25;;;;;;;4.82;1.40;;;11.90;96.50;;;;;;5095356;28;20035;-68
2024/02/22 00:59:50;;;;;;;2.70;1.65;;;11.90;96.80;;;;;;5106829;28;20027;-69
2024/02/22 01:02:16;;;;;;;1.73;1.10;;;11.90;97.00;;;;;;5098091;28;20100;-69
2024/02/22 01:04:42;;;;;;;1.40;1.30;;;11.90;97.20;;;;;;5111298;28;20023;-69
2024/02/22 01:07:08;;;;;;;2.80;1.08;;;11.80;97.40;;;;;;5110982;28;20073;-69
2024/02/22 01:09:34;;;;;;;2.08;1.23;;;11.80;97.50;;;;;;5109824;28;20500;-69
2024/02/22 01:11:59;;;;;;;2.03;1.20;;;11.80;97.60;;;;;;5110680;28;20370;-69
2024/02/22 01:14:25;;;;;;;2.20;1.23;;;11.70;98.10;;;;;;5111254;28;20062;-70
2024/02/22 01:16:50;;;;;;;1.75;1.00;;;11.70;98.50;;;;;;5089437;28;20103;-70
2024/02/22 01:19:17;;;;;;;2.03;1.25;;;11.60;98.80;;;;;;5110594;28;20024;-70
2024/02/22 01:21:43;;;;;;;1.80;1.17;;;11.60;99.10;;;;;;5104944;28;20027;-70
2024/02/22 01:24:09;;;;;;;1.60;1.30;;;11.60;99.50;;;;;;5101272;28;20144;-70
2024/02/22 01:26:35;;;;;;;2.30;1.40;;;11.50;99.70;;;;;;5110815;28;20106;-69
2024/02/22 01:29:00;;;;;;;3.78;1.60;;;11.40;99.90;;;;;;5109954;28;20024;-70
2024/02/22 01:31:26;;;;;;;2.97;1.13;;;11.40;99.90;;;;;;5092629;28;20420;-70
2024/02/22 01:33:51;;;;;;;3.92;1.33;;;11.30;99.90;;;;;;5097629;28;20088;-69
2024/02/22 01:36:17;;;;;;;2.95;1.27;;;11.30;99.90;;;;;;5115807;28;20383;-70
2024/02/22 01:38:43;;;;;;;4.70;1.50;;;11.20;99.90;;;;;;5115240;28;20038;-70
2024/02/22 01:41:09;;;;;;;3.33;1.05;;;11.20;99.90;;;;;;5113151;28;20127;-70
2024/02/22 01:43:34;;;;;;;2.80;1.50;;;11.10;99.90;;;;;;5114722;28;20035;-71
2024/02/22 01:46:02;;;;;;;2.17;1.25;;;11.10;99.90;;;;;;5114057;28;20043;-70
2024/02/22 01:48:28;;;;;;;2.58;1.40;;;11.10;99.90;;;;;;5101118;28;20043;-71
2024/02/22 01:50:56;;;;;;;5.35;1.23;;;11.10;99.90;;;;;;5098767;28;20024;-70
2024/02/22 01:53:23;;;;;;;1.48;1.17;;;11.10;99.90;;;;;;5103859;28;20050;-70
2024/02/22 01:55:52;;;;;;;2.17;1.25;;;11.10;99.90;;;;;;5113756;28;20023;-69
2024/02/22 01:58:18;;;;;;;5.25;1.20;;;11.00;99.90;;;;;;5114306;28;20024;-70
2024/02/22 02:00:45;;;;;;;1.60;1.05;;;11.00;99.90;;;;;;5114308;28;20031;-70
2024/02/22 02:03:11;;;;;;;5.43;1.42;;;11.00;99.90;;;;;;5114490;28;20523;-70
2024/02/22 02:05:37;;;;;;;3.13;1.85;;;11.00;99.90;;;;;;5106816;28;20114;-69
2024/02/22 02:08:02;;;;;;;2.63;1.20;;;11.00;99.90;;;;;;5105350;28;20039;-70
2024/02/22 02:10:28;;;;;;;1.55;1.20;;;10.90;99.90;;;;;;5102680;28;20027;-71
2024/02/22 02:13:02;;;;;;;4.13;1.30;;;10.90;99.90;;;;;;5120914;28;20050;-70
2024/02/22 02:15:28;;;;;;;1.95;1.33;;;10.90;99.90;;;;;;5119386;28;20023;-69
2024/02/22 02:17:53;;;;;;;1.15;0.90;;;10.80;99.90;;;;;;5120629;28;20473;-70
2024/02/22 02:20:26;;;;;;;1.75;1.10;;;10.80;99.90;;;;;;5115610;28;20048;-70
2024/02/22 02:23:15;;;;;;;1.92;0.95;;;10.70;99.90;;;;;;5104244;28;20027;-72
2024/02/22 02:25:41;;;;;;;3.40;1.15;;;10.80;99.90;;;;;;5110402;28;20036;-70
2024/02/22 02:28:07;;;;;;;1.73;1.40;;;10.80;99.90;;;;;;5109115;28;20209;-70
2024/02/22 02:30:32;;;;;;;1.77;1.27;;;10.70;99.90;;;;;;5093795;28;20059;-70
2024/02/22 02:32:58;;;;;;;1.80;1.05;;;10.70;99.90;;;;;;5105665;28;20059;-70
2024/02/22 02:35:24;;;;;;;1.17;0.88;;;10.70;99.90;;;;;;5107369;28;20024;-70
2024/02/22 02:37:49;;;;;;;1.75;0.90;;;10.60;99.90;;;;;;5093563;28;20099;-70
2024/02/22 02:40:15;;;;;;;1.25;1.00;;;10.70;99.90;;;;;;5109041;28;20023;-69
2024/02/22 02:42:41;;;;;;;1.45;0.80;;;10.60;99.90;;;;;;5096734;28;20030;-69
2024/02/22 02:45:07;;;;;;;1.60;0.98;;;10.60;99.90;;;;;;5093480;28;20028;-69
2024/02/22 02:47:34;;;;;;;1.05;0.95;;;10.60;99.90;;;;;;5113547;28;20027;-69
2024/02/22 02:50:00;;;;;;;1.30;0.85;;;10.60;99.90;;;;;;5112018;28;20039;-69
2024/02/22 02:52:25;;;;;;;1.58;1.02;;;10.50;99.90;;;;;;5113598;28;20391;-69
2024/02/22 02:54:51;;;;;;;1.40;0.80;;;10.50;99.90;;;;;;5098661;28;20142;-70
2024/02/22 02:57:16;;;;;;;1.17;0.70;;;10.50;99.90;;;;;;5100535;28;20030;-69
2024/02/22 02:59:42;;;;;;;2.72;0.75;;;10.50;99.90;;;;;;5101223;28;20396;-68
2024/02/22 03:02:08;;;;;;;5.78;0.85;;;10.50;99.90;;;;;;5108442;28;20469;-69
2024/02/22 03:04:34;;;;;;;1.23;0.80;;;10.50;99.90;;;;;;5096605;28;20154;-68
2024/02/22 03:07:00;;;;;;;2.30;0.90;;;10.40;99.90;;;;;;5094112;28;20112;-69
2024/02/22 03:09:25;;;;;;;2.08;0.85;;;10.40;99.90;;;;;;5093446;28;20495;-69
2024/02/22 03:11:51;;;;;;;0.90;0.80;;;10.40;99.90;;;;;;5112606;28;20027;-68
2024/02/22 03:14:16;;;;;;;2.38;0.70;;;10.40;99.90;;;;;;5112228;28;20031;-69
2024/02/22 03:16:42;;;;;;;2.60;1.05;;;10.30;99.90;;;;;;5113739;28;20349;-70
2024/02/22 03:19:09;;;;;;;0.77;0.63;;;10.30;99.90;;;;;;5103023;28;20496;-69
2024/02/22 03:21:37;;;;;;;1.33;0.85;;;10.30;99.90;;;;;;5119204;27;20027;-69
2024/02/22 03:24:03;;;;;;;1.25;0.77;;;10.20;99.90;;;;;;5114794;27;20028;-69
2024/02/22 03:26:30;;;;;;;1.25;0.73;;;10.20;99.90;;;;;;5113300;28;20036;-70
2024/02/22 03:28:55;;;;;;;1.25;0.80;;;10.10;99.90;;;;;;5106668;28;20031;-69
2024/02/22 03:31:22;;;;;;;2.45;0.73;;;10.10;99.90;;;;;;5112821;28;20437;-70
2024/02/22 03:33:48;;;;;;;1.35;0.95;;;10.10;99.90;;;;;;5107114;28;20052;-69
2024/02/22 03:36:13;;;;;;;0.65;0.65;;;10.10;99.90;;;;;;5104603;28;20038;-70
2024/02/22 03:38:39;;;;;;;1.67;0.80;;;10.00;99.90;;;;;;5094043;28;20024;-69
2024/02/22 03:41:05;;;;;;;1.30;0.93;;;10.00;99.90;;;;;;5091883;28;20054;-70
2024/02/22 03:43:31;;;;;;;0.95;0.90;;;10.00;99.90;;;;;;5110500;28;20031;-69
2024/02/22 03:45:56;;;;;;;1.05;0.80;;;10.00;99.90;;;;;;5111380;28;20019;-69
2024/02/22 03:48:22;;;;;;;2.67;1.00;;;9.90;99.90;;;;;;5111886;28;20034;-69
2024/02/22 03:50:48;;;;;;;2.15;0.80;;;10.00;99.90;;;;;;5111032;28;20103;-68
2024/02/22 03:53:15;;;;;;;2.35;1.45;;;9.90;99.90;;;;;;5098990;28;20067;-69
2024/02/22 03:55:41;;;;;;;1.13;0.70;;;9.90;99.90;;;;;;5104429;28;20035;-68
2024/02/22 03:58:07;;;;;;;3.00;0.88;;;9.70;99.90;;;;;;5098280;28;20020;-69
2024/02/22 04:00:34;;;;;;;1.92;0.98;;;9.60;99.90;;;;;;5111714;28;20024;-70
2024/02/22 04:02:59;;;;;;;0.93;0.73;;;9.50;99.90;;;;;;5111398;28;20124;-69
2024/02/22 04:05:25;;;;;;;1.83;0.85;;;9.40;99.90;;;;;;5111881;28;20072;-70
2024/02/22 04:07:51;;;;;;;3.63;1.20;;;9.40;99.90;;;;;;5111500;28;20066;-70
2024/02/22 04:10:16;;;;;;;5.57;1.17;;;9.30;99.90;;;;;;5093603;28;20034;-69
2024/02/22 04:12:42;;;;;;;1.00;0.77;;;9.20;99.90;;;;;;5100503;28;20039;-72
2024/02/22 04:15:08;;;;;;;2.67;0.98;;;9.20;99.90;;;;;;5103378;28;20039;-71
2024/02/22 04:17:33;;;;;;;1.02;0.80;;;9.10;99.90;;;;;;5106926;28;20035;-69
2024/02/22 04:20:00;;;;;;;1.05;0.90;;;9.00;99.90;;;;;;5111706;28;20027;-69
2024/02/22 04:22:26;;;;;;;1.00;0.80;;;9.00;99.90;;;;;;5121886;27;20110;-71
2024/02/22 04:24:52;;;;;;;2.10;1.05;;;9.00;99.90;;;;;;5110599;28;20026;-70
2024/02/22 04:27:18;;;;;;;3.72;1.00;;;9.00;99.90;;;;;;5102023;28;20032;-71
2024/02/22 04:29:43;;;;;;;1.60;0.90;;;9.00;99.90;;;;;;5106085;28;20032;-69
2024/02/22 04:32:09;;;;;;;1.05;0.80;;;9.00;99.90;;;;;;5111329;28;20129;-70
2024/02/22 04:34:35;;;;;;;2.00;1.08;;;9.00;99.90;;;;;;5099442;28;20047;-75
2024/02/22 04:37:00;;;;;;;2.10;1.20;;;9.00;99.90;;;;;;5108555;28;20408;-73
2024/02/22 04:39:26;;;;;;;1.00;0.90;;;9.00;99.90;;;;;;5109791;28;20039;-72
2024/02/22 04:41:54;;;;;;;1.17;0.90;;;9.00;99.90;;;;;;5111311;28;20374;-70
2024/02/22 04:44:20;;;;;;;1.42;1.25;;;9.10;99.90;;;;;;5103556;28;20044;-68
2024/02/22 04:46:46;;;;;;;1.67;0.75;;;9.10;99.90;;;;;;5106007;28;20024;-69
2024/02/22 04:49:11;;;;;;;2.00;1.17;;;9.10;99.90;;;;;;5104439;28;20049;-72
2024/02/22 04:51:40;;;;;;;3.67;0.88;;;9.10;99.90;;;;;;5099968;28;20077;-72
2024/02/22 04:54:05;;;;;;;0.85;0.85;;;9.10;99.90;;;;;;5089439;28;20149;-71
2024/02/22 04:56:31;;;;;;;1.92;0.90;;;9.10;99.90;;;;;;5107041;28;20028;-73
2024/02/22 04:58:57;;;;;;;1.05;0.80;;;9.10;99.90;;;;;;5111374;27;20448;-71
2024/02/22 05:01:26;;;;;;;1.05;0.90;;;9.10;99.90;;;;;;5089365;28;20023;-70
2024/02/22 05:03:52;;;;;;;1.27;1.05;;;9.20;99.90;;;;;;5107712;28;20019;-76
2024/02/22 05:06:17;;;;;;;1.60;0.70;;;9.20;99.90;;;;;;5106737;28;20480;-71
2024/02/22 05:08:43;;;;;;;1.27;0.90;;;9.10;99.90;;;;;;5101241;28;20062;-71
2024/02/22 05:11:09;;;;;;;2.90;0.75;;;9.20;99.90;;;;;;5106482;28;20040;-71
2024/02/22 05:13:34;;;;;;;2.00;0.88;;;9.10;99.90;;;;;;5108222;28;20036;-72
2024/02/22 05:16:00;;;;;;;0.80;0.80;;;9.00;99.90;;;;;;5107857;28;20072;-73
2024/02/22 05:18:26;;;;;;;0.70;0.70;;;9.00;99.90;;;;;;5096884;28;20043;-70
2024/02/22 05:20:51;;;;;;;0.65;0.50;;;9.00;99.90;;;;;;5104506;28;20031;-71
2024/02/22 05:23:17;;;;;;;1.90;0.93;;;9.00;99.90;;;;;;5087448;28;20110;-72
2024/02/22 05:25:43;;;;;;;2.35;0.80;;;9.00;99.90;;;;;;5102160;28;20059;-73
2024/02/22 05:28:08;;;;;;;2.47;0.80;;;8.90;99.90;;;;;;5112577;28;20031;-73
2024/02/22 05:30:34;;;;;;;0.90;0.80;;;8.80;99.90;;;;;;5105245;28;20473;-71
2024/02/22 05:33:00;;;;;;;4.00;1.20;;;8.70;99.90;;;;;;5106719;27;20051;-73
2024/02/22 05:35:26;;;;;;;1.65;0.98;;;8.60;99.90;;;;;;5092911;28;20148;-71
2024/02/22 05:37:52;;;;;;;1.40;0.90;;;8.60;99.90;;;;;;5109017;28;20042;-74
2024/02/22 05:40:18;;;;;;;2.35;0.90;;;8.60;99.90;;;;;;5108537;28;20110;-74
2024/02/22 05:42:44;;;;;;;1.50;0.90;;;8.60;99.90;;;;;;5112315;28;20028;-73
2024/02/22 05:45:10;;;;;;;1.42;0.93;;;8.60;99.90;;;;;;5100892;28;20024;-72
2024/02/22 05:47:36;;;;;;;1.60;1.00;;;8.50;99.90;;;;;;5115357;28;20089;-73
2024/02/22 05:50:05;;;;;;;0.95;0.80;;;8.50;99.90;;;;;;5105422;28;20303;-72
2024/02/22 05:52:30;;;;;;;2.45;1.17;;;8.60;99.90;;;;;;5100730;28;20041;-72
2024/02/22 05:54:56;;;;;;;1.63;1.00;;;8.60;99.90;;;;;;5101969;28;20031;-72
2024/02/22 05:57:22;;;;;;;2.05;1.10;;;8.60;99.90;;;;;;5078314;28;20032;-72
2024/02/22 05:59:48;;;;;;;2.00;1.13;;;8.60;99.90;;;;;;5105298;28;20046;-76
2024/02/22 06:02:14;;;;;;;3.55;1.05;;;8.60;99.90;;;;;;5111436;28;20372;-77
2024/02/22 06:04:39;;;;;;;1.67;0.90;;;8.50;99.90;;;;;;5108812;28;20077;-73
2024/02/22 06:07:06;;;;;;;1.35;1.00;;;8.60;99.90;;;;;;5095562;28;20032;-73
2024/02/22 06:09:31;;;;;;;2.03;1.13;;;8.60;99.90;;;;;;5093251;28;20027;-74
2024/02/22 06:11:57;;;;;;;1.17;1.08;;;8.60;99.90;;;;;;5100302;28;20040;-71
2024/02/22 06:14:23;;;;;;;2.05;0.93;;;8.60;99.90;;;;;;5091118;28;20024;-70
2024/02/22 06:16:48;;;;;;;4.15;1.00;;;8.50;99.90;;;;;;5112330;28;20085;-73
2024/02/22 06:19:14;;;;;;;3.28;1.50;;;8.60;99.90;;;;;;5109742;28;20028;-73
2024/02/22 06:21:39;;;;;;;2.33;1.30;;;8.60;99.90;;;;;;5109103;27;20028;-72
2024/02/22 06:24:05;;;;;;;2.63;1.10;;;8.60;99.90;;;;;;5099462;28;20035;-72
2024/02/22 06:26:33;;;;;;;1.63;1.00;;;8.70;99.90;;;;;;5112220;28;20032;-69
2024/02/22 06:28:59;;;;;;;4.72;1.08;;;8.70;99.90;;;;;;5099766;28;20070;-72
2024/02/22 06:31:24;;;;;;;1.92;0.98;;;8.70;99.90;;;;;;5109649;28;20043;-71
2024/02/22 06:33:52;;;;;;;1.60;0.90;;;8.70;99.90;;;;;;5111158;28;20047;-72
2024/02/22 06:36:18;;;;;;;1.55;1.13;;;8.80;99.90;;;;;;5114754;28;20051;-70
2024/02/22 06:38:48;;;;;;;2.47;1.23;;;8.70;99.90;;;;;;5093218;28;20331;-75
2024/02/22 06:41:18;;;;;;;1.10;1.00;;;8.80;99.90;;;;;;5093302;28;20023;-71
2024/02/22 06:43:44;;;;;;;1.30;0.90;;;8.80;99.90;;;;;;5099244;28;20273;-70
2024/02/22 06:46:11;;;;;;;1.42;1.02;;;8.80;99.90;;;;;;5098247;28;20337;-71
2024/02/22 06:48:37;;;;;;;1.02;0.80;;;8.80;99.90;;;;;;5105368;28;20076;-70
2024/02/22 06:51:03;;;;;;;1.10;0.88;;;8.80;99.90;;;;;;5109146;28;20031;-78
2024/02/22 06:53:29;;;;;;;1.52;0.70;;;8.80;99.90;;;;;;5115100;28;20043;-69
2024/02/22 06:55:54;;;;;;;1.50;0.95;;;8.80;99.90;;;;;;5114458;28;20127;-76
2024/02/22 06:58:20;;;;;;;2.65;0.90;;;8.80;99.90;;;;;;5110690;28;20019;-75
2024/02/22 07:00:45;;;;;;;1.73;1.10;;;8.80;99.90;;;;;;5116351;27;20020;-68
2024/02/22 07:03:11;;;;;;;2.63;1.10;;;8.80;99.90;;;;;;5107143;28;20034;-69
2024/02/22 07:05:37;;;;;;;3.08;1.42;;;8.80;99.90;;;;;;5098707;28;20142;-68
2024/02/22 07:08:03;;;;;;;3.80;2.20;;;8.80;99.90;;;;;;5107294;28;20085;-69
2024/02/22 07:10:28;;;;;;;2.38;1.63;;;8.80;99.90;;;;;;5108709;28;20024;-70
2024/02/22 07:12:55;;;;;;;5.88;2.15;;;8.80;99.90;;;;;;5107891;28;20046;-72
2024/02/22 07:15:21;;;;;;;2.83;1.60;;;8.80;99.90;;;;;;5107798;28;20107;-70
2024/02/22 07:17:47;;;;;;;5.03;1.70;;;8.80;99.90;;;;;;5100326;28;20127;-69
2024/02/22 07:20:13;;;;;;;3.33;1.70;;;8.80;99.90;;;;;;5107618;28;20024;-69
2024/02/22 07:22:42;;;;;;;3.22;2.00;;;8.90;99.90;;;;;;5122498;27;20039;-68
2024/02/22 07:25:11;;;;;;;5.00;2.10;;;8.90;99.90;;;;;;5105690;28;20039;-68
2024/02/22 07:27:39;;;;;;;4.63;2.30;;;8.90;99.90;;;;;;5103438;28;20028;-70
2024/02/22 07:30:06;;;;;;;4.32;2.50;;;8.90;99.90;;;;;;5108918;28;20660;-67
2024/02/22 07:32:32;;;;;;;4.00;2.63;;;8.90;99.90;;;;;;5109890;28;20027;-68
2024/02/22 07:34:57;;;;;;;4.10;2.50;;;8.80;99.90;;;;;;5102505;28;20365;-70
2024/02/22 07:37:23;;;;;;;3.47;2.45;;;8.90;99.90;;;;;;5109241;28;20089;-69
2024/02/22 07:39:48;;;;;;;4.07;2.17;;;8.90;99.90;;;;;;5111261;28;20027;-71
2024/02/22 07:42:14;;;;;;;3.35;1.85;;;8.90;99.90;;;;;;5109407;28;20081;-71
2024/02/22 07:44:43;;;;;;;3.83;2.08;;;8.90;99.90;;;;;;5112154;28;20031;-70
2024/02/22 07:47:09;;;;;;;3.55;2.00;;;8.90;99.90;;;;;;5107848;28;20063;-70
2024/02/22 07:49:34;;;;;;;2.97;2.00;;;9.00;99.90;;;;;;5105861;28;20054;-69
2024/02/22 07:52:00;;;;;;;2.58;1.60;;;9.00;99.90;;;;;;5102105;27;20134;-69
2024/02/22 07:54:25;;;;;;;3.47;1.92;;;9.00;99.90;;;;;;5110212;27;20043;-69
2024/02/22 07:56:51;;;;;;;3.10;1.73;;;9.00;99.90;;;;;;5105800;28;20027;-69
2024/02/22 07:59:16;;;;;;;3.67;1.65;;;9.10;99.90;;;;;;5111162;28;20030;-70
2024/02/22 08:01:42;;;;;;;3.22;1.50;;;9.10;99.90;;;;;;5098531;28;20028;-69
2024/02/22 08:04:08;;;;;;;2.00;1.30;;;9.10;99.90;;;;;;5108758;28;20053;-72
2024/02/22 08:06:33;;;;;;;3.05;1.50;;;9.10;99.90;;;;;;5104985;28;20464;-69
2024/02/22 08:08:59;;;;;;;2.17;1.05;;;9.10;99.90;;;;;;5100323;28;20035;-70
2024/02/22 08:11:27;;;;;;;2.13;0.90;;;9.20;99.90;;;;;;5121947;27;20481;-71
2024/02/22 08:13:52;;;;;;;1.90;1.20;;;9.20;99.90;;;;;;5101021;28;20495;-69
2024/02/22 08:16:18;;;;;;;0.90;0.70;;;9.20;99.90;;;;;;5111922;28;20050;-70
2024/02/22 08:18:45;;;;;;;1.40;0.68;;;9.20;99.90;;;;;;5110390;28;20416;-69
2024/02/22 08:21:10;;;;;;;1.20;0.85;;;9.20;99.90;;;;;;5110377;28;20028;-69
2024/02/22 08:23:37;;;;;;;0.88;0.60;;;9.30;99.90;;;;;;5099243;28;20028;-70
2024/02/22 08:26:03;;;;;;;0.60;0.55;;;9.20;99.90;;;;;;5108196;27;20486;-70
2024/02/22 08:28:29;;;;;;;1.10;0.50;;;9.30;99.90;;;;;;5101242;28;20027;-70
2024/02/22 08:30:55;;;;;;;1.38;0.60;;;9.30;99.90;;;;;;5107059;27;20020;-69
2024/02/22 08:33:24;;;;;;;0.50;0.35;;;9.30;99.90;;;;;;5109858;27;20114;-69
2024/02/22 08:35:49;;;;;;;2.47;0.50;;;9.30;99.90;;;;;;5097054;28;20097;-70
2024/02/22 08:38:15;;;;;;;0.70;0.57;;;9.40;99.90;;;;;;5098524;28;20024;-70
2024/02/22 08:40:41;;;;;;;1.52;0.68;;;9.30;99.90;;;;;;5107535;28;20056;-70
2024/02/22 08:43:08;;;;;;;0.75;0.40;;;9.30;99.90;;;;;;5105008;28;20372;-70
2024/02/22 08:45:34;;;;;;;0.73;0.35;;;9.40;99.90;;;;;;5109229;27;20111;-70
2024/02/22 08:48:00;;;;;;;1.55;0.40;;;9.40;99.90;;;;;;5106026;27;20023;-70
2024/02/22 08:50:25;;;;;;;0.82;0.30;;;9.40;99.90;;;;;;5101792;28;20028;-68
2024/02/22 08:52:51;;;;;;;1.55;0.45;;;9.50;99.90;;;;;;5104189;28;20028;-69
2024/02/22 08:55:17;;;;;;;1.17;0.38;;;9.60;99.90;;;;;;5102575;28;20055;-68
2024/02/22 08:57:43;;;;;;;0.35;0.20;;;9.60;99.90;;;;;;5100381;28;20035;-70
2024/02/22 09:00:10;;;;;;;0.85;0.30;;;9.70;99.90;;;;;;5096222;28;20490;-70
2024/02/22 09:02:36;;;;;;;1.27;0.40;;;9.80;99.90;;;;;;5098013;28;20065;-68
2024/02/22 09:05:03;;;;;;;0.20;0.20;;;9.80;99.90;;;;;;5099714;28;20381;-69
2024/02/22 09:07:28;;;;;;;1.35;0.40;;;9.90;99.90;;;;;;5110289;28;20020;-69
2024/02/22 09:09:54;;;;;;;0.40;0.30;;;10.00;99.90;;;;;;5109762;28;20023;-68
2024/02/22 09:12:21;;;;;;;0.25;0.25;;;10.10;99.90;;;;;;5110732;28;20031;-66
2024/02/22 09:14:46;;;;;;;0.75;0.38;;;10.20;99.90;;;;;;5107225;28;20113;-67
2024/02/22 09:17:12;;;;;;;0.28;0.20;;;10.20;99.90;;;;;;5101313;28;20051;-67
2024/02/22 09:19:37;;;;;;;1.27;0.20;;;10.30;99.90;;;;;;5111010;28;20036;-67
2024/02/22 09:22:03;;;;;;;1.80;0.15;;;10.40;99.90;;;;;;5104553;28;20073;-67
2024/02/22 09:24:29;;;;;;;1.80;0.45;;;10.30;99.90;;;;;;5105750;28;20020;-67
2024/02/22 09:26:56;;;;;;;0.65;0.20;;;10.30;99.90;;;;;;5110122;28;20468;-67
2024/02/22 09:29:22;;;;;;;0.30;0.30;;;10.30;99.90;;;;;;5102447;28;20123;-67
2024/02/22 09:31:48;;;;;;;0.82;0.30;;;10.30;99.90;;;;;;5085868;28;20031;-67
2024/02/22 09:34:13;;;;;;;0.30;0.30;;;10.30;99.90;;;;;;5102028;28;20105;-67
2024/02/22 09:36:40;;;;;;;0.38;0.38;;;10.30;99.90;;;;;;5091958;28;20028;-67
2024/02/22 09:39:06;;;;;;;0.13;0.10;;;10.40;99.90;;;;;;5088659;28;20027;-67
2024/02/22 09:41:33;;;;;;;0.40;0.30;;;10.40;99.90;;;;;;5086204;28;20057;-67
2024/02/22 09:43:58;;;;;;;0.38;0.25;;;10.30;99.90;;;;;;5108043;28;20024;-67
2024/02/22 09:46:25;;;;;;;0.60;0.30;;;10.30;99.90;;;;;;5105123;28;20073;-67
2024/02/22 09:48:51;;;;;;;1.50;0.40;;;10.20;99.90;;;;;;5104827;28;20024;-67
2024/02/22 09:51:17;;;;;;;1.10;0.10;;;10.20;99.90;;;;;;5101613;28;20403;-67
2024/02/22 09:53:45;;;;;;;0.65;0.30;;;10.10;99.90;;;;;;5106975;28;20032;-68
2024/02/22 09:56:13;;;;;;;0.20;0.20;;;10.10;99.90;;;;;;5113255;28;20034;-68
2024/02/22 09:58:39;;;;;;;1.80;0.20;;;10.20;99.90;;;;;;5111102;28;20388;-68
2024/02/22 10:01:05;;;;;;;0.40;0.32;;;10.20;99.90;;;;;;5102318;28;20155;-67
2024/02/22 10:03:32;;;;;;;1.40;0.50;;;10.30;99.90;;;;;;5107715;28;20044;-68
2024/02/22 10:05:58;;;;;;;0.75;0.20;;;10.40;99.90;;;;;;5110197;28;20038;-68
2024/02/22 10:08:24;;;;;;;0.20;0.10;;;10.40;99.90;;;;;;5112715;28;20020;-68
2024/02/22 10:10:55;;;;;;;0.75;0.20;;;10.50;99.90;;;;;;5112946;28;20024;-68
2024/02/22 10:13:21;;;;;;;0.47;0.20;;;10.60;99.90;;;;;;5107683;28;20020;-68
2024/02/22 10:15:47;;;;;;;0.20;0.20;;;10.80;99.90;;;;;;5112796;28;20107;-68
2024/02/22 10:18:13;;;;;;;0.57;0.20;;;10.90;99.90;;;;;;5095794;28;20111;-68
2024/02/22 10:20:38;;;;;;;0.40;0.22;;;11.00;99.90;;;;;;5106186;28;20028;-69
2024/02/22 10:23:05;;;;;;;1.77;0.20;;;11.00;99.90;;;;;;5103432;27;20089;-69
2024/02/22 10:25:31;;;;;;;0.45;0.30;;;11.10;99.90;;;;;;5101869;28;20024;-69
2024/02/22 10:27:57;;;;;;;0.85;0.30;;;11.20;99.90;;;;;;5110279;28;20030;-68
2024/02/22 10:30:26;;;;;;;2.00;0.30;;;11.20;99.90;;;;;;5097529;28;20035;-68
2024/02/22 10:32:55;;;;;;;0.50;0.20;;;11.20;99.90;;;;;;5112650;28;20488;-68
2024/02/22 10:35:23;;;;;;;0.80;0.23;;;11.30;99.90;;;;;;5113342;28;20027;-69
2024/02/22 10:37:53;;;;;;;2.72;0.15;;;11.30;99.90;;;;;;5126387;27;20028;-69
2024/02/22 10:40:19;;;;;;;0.20;0.20;;;11.30;99.90;;;;;;5096366;28;20034;-68
2024/02/22 10:42:49;;;;;;;1.25;0.20;;;11.30;99.90;;;;;;5111978;28;20039;-69
2024/02/22 10:45:15;;;;;;;0.20;0.20;;;11.20;99.90;;;;;;5104285;28;20066;-69
2024/02/22 10:47:41;;;;;;;0.50;0.10;;;11.20;99.90;;;;;;5121844;27;20453;-69
2024/02/22 10:50:07;;;;;;;0.60;0.28;;;11.20;99.90;;;;;;5110680;28;20032;-70
2024/02/22 10:52:42;;;;;;;0.30;0.20;;;11.20;99.90;;;;;;5113303;28;20463;-69
2024/02/22 10:55:15;;;;;;;0.50;0.30;;;11.10;99.90;;;;;;5089265;28;20036;-69
2024/02/22 10:57:47;;;;;;;0.43;0.15;;;11.00;99.90;;;;;;5109166;28;20388;-69
2024/02/22 11:00:14;;;;;;;1.05;0.40;;;11.00;99.90;;;;;;5099856;27;20020;-69
2024/02/22 11:02:41;;;;;;;0.20;0.10;;;11.00;99.90;;;;;;5095809;28;20428;-69
2024/02/22 11:05:11;;;;;;;1.80;0.20;;;10.90;99.90;;;;;;5102589;28;20077;-69
2024/02/22 11:07:50;;;;;;;0.70;0.20;;;10.90;99.90;;;;;;5101586;27;20100;-69
2024/02/22 11:10:16;;;;;;;0.50;0.35;;;10.80;99.90;;;;;;5111858;28;20023;-70
2024/02/22 11:12:44;;;;;;;0.75;0.30;;;10.70;99.90;;;;;;5099594;28;20057;-69
2024/02/22 11:15:10;;;;;;;0.30;0.10;;;10.60;99.90;;;;;;5101698;28;20032;-69
2024/02/22 11:17:36;;;;;;;0.40;0.20;;;10.50;99.90;;;;;;5112908;28;20034;-69
2024/02/22 11:20:14;;;;;;;0.43;0.22;;;10.50;99.90;;;;;;5097472;28;20024;-68
2024/02/22 11:22:39;;;;;;;0.60;0.30;;;10.40;99.90;;;;;;5116645;27;20023;-68
2024/02/22 11:25:07;;;;;;;0.10;0.10;;;10.30;99.90;;;;;;5114519;27;20039;-68
2024/02/22 11:27:33;;;;;;;1.00;0.22;;;10.30;99.90;;;;;;5106907;28;20150;-69
2024/02/22 11:30:10;;;;;;;1.38;0.28;;;10.20;99.90;;;;;;5110183;28;20074;-68
2024/02/22 11:32:35;;;;;;;2.65;0.57;;;10.20;99.90;;;;;;5110912;28;20594;-68
2024/02/22 11:35:01;;;;;;;0.65;0.40;;;10.10;99.90;;;;;;5107176;28;20110;-68
2024/02/22 11:37:27;;;;;;;0.60;0.22;;;10.10;99.90;;;;;;5094039;28;20198;-68
2024/02/22 11:40:00;;;;;;;0.30;0.30;;;10.10;99.90;;;;;;5108638;28;20043;-68
2024/02/22 11:42:26;;;;;;;0.57;0.30;;;10.10;99.90;;;;;;5104717;28;20034;-68
2024/02/22 11:44:53;;;;;;;0.45;0.22;;;10.00;99.90;;;;;;5092073;28;20356;-69
2024/02/22 11:47:19;;;;;;;2.22;0.30;;;10.00;99.90;;;;;;5112130;28;20470;-69
2024/02/22 11:49:45;;;;;;;0.95;0.45;;;10.00;99.90;;;;;;5107271;28;20073;-69
2024/02/22 11:52:14;;;;;;;1.05;0.30;;;10.00;99.90;;;;;;5111280;28;20053;-69
2024/02/22 11:54:42;;;;;;;0.25;0.22;;;10.00;99.90;;;;;;5111777;28;20080;-70
2024/02/22 11:57:08;;;;;;;0.60;0.20;;;10.00;99.90;;;;;;5110591;28;20028;-69
2024/02/22 11:59:34;;;;;;;0.45;0.20;;;10.20;99.90;;;;;;5105453;28;20024;-68
2024/02/22 12:02:06;;;;;;;0.80;0.20;;;10.30;99.90;;;;;;5106715;28;20460;-68
2024/02/22 12:04:33;;;;;;;0.80;0.30;;;10.50;99.90;;;;;;5099700;28;20022;-68
2024/02/22 12:07:02;;;;;;;2.97;0.50;;;10.70;99.90;;;;;;5103514;28;20502;-69
2024/02/22 12:09:29;;;;;;;1.20;0.23;;;10.90;99.90;;;;;;5110923;28;20472;-69
2024/02/22 12:11:56;;;;;;;1.23;0.40;;;11.10;99.90;;;;;;5109401;28;20094;-68
2024/02/22 12:14:21;;;;;;;0.35;0.20;;;11.30;99.90;;;;;;5108507;28;20047;-69
2024/02/22 12:16:47;;;;;;;1.05;0.50;;;11.50;99.90;;;;;;5107724;28;20027;-68
2024/02/22 12:19:17;;;;;;;0.68;0.22;;;11.60;99.90;;;;;;5103021;28;20452;-68
2024/02/22 12:21:45;;;;;;;;;;;11.70;99.90;;;;;;5113647;27;20024;-69
2024/02/22 12:24:11;;;;;;;0.82;0.30;;;11.70;99.90;;;;;;5110323;28;19914;-68
2024/02/22 12:26:37;;;;;;;0.35;0.20;;;11.80;99.90;;;;;;5099101;28;20016;-68
2024/02/22 12:29:02;;;;;;;1.58;0.82;;;11.70;99.90;;;;;;5110811;28;20019;-68
2024/02/22 12:31:28;;;;;;;0.60;0.30;;;11.70;99.90;;;;;;5099808;28;20434;-68
2024/02/22 12:33:55;;;;;;;0.80;0.20;;;11.70;99.90;;;;;;5100694;28;20479;-67
2024/02/22 12:36:23;;;;;;;1.10;0.30;;;11.70;99.90;;;;;;5108899;28;20024;-68
2024/02/22 12:38:49;;;;;;;0.30;0.22;;;11.70;99.90;;;;;;5102158;28;20028;-67
2024/02/22 12:41:16;;;;;;;0.57;0.22;;;11.60;99.90;;;;;;5092972;28;20028;-67
2024/02/22 12:43:49;;;;;;;1.42;0.20;;;11.60;99.90;;;;;;5110983;28;20041;-67
2024/02/22 12:46:16;;;;;;;0.32;0.20;;;11.60;99.90;;;;;;5111222;28;20073;-68